sensor_id;sensor_type;location;lat;lon;timestamp;pressure;altitude;pressure_sealevel;temperature;humidity
49515;BME280;35415;47.870;16.058;2022-12-19T00:01:31;98897.25;;;-4.39;89.82
49515;BME280;35415;47.870;16.058;2022-12-19T00:04:03;98835.53;;;-4.95;89.94
49515;BME280;35415;47.870;16.058;2022-12-19T00:06:31;98910.53;;;-4.41;89.80
49515;BME280;35415;47.870;16.058;2022-12-19T00:09:01;98876.28;;;-4.70;89.56
49515;BME280;35415;47.870;16.058;2022-12-19T00:11:28;98917.41;;;-4.49;89.85
49515;BME280;35415;47.870;16.058;2022-12-19T00:13:56;98842.06;;;-4.89;89.68
49515;BME280;35415;47.870;16.058;2022-12-19T00:16:25;98794.72;;;-5.18;90.24
49515;BME280;35415;47.870;16.058;2022-12-19T00:18:54;98877.69;;;-4.66;90.51
49515;BME280;35415;47.870;16.058;2022-12-19T00:21:25;98876.41;;;-4.71;90.06
49515;BME280;35415;47.870;16.058;2022-12-19T00:23:53;98848.66;;;-4.95;89.91
49515;BME280;35415;47.870;16.058;2022-12-19T00:26:22;98851.00;;;-5.01;90.31
49515;BME280;35415;47.870;16.058;2022-12-19T00:28:52;98833.13;;;-5.07;90.22
49515;BME280;35415;47.870;16.058;2022-12-19T00:31:24;98871.19;;;-4.92;90.51
49515;BME280;35415;47.870;16.058;2022-12-19T00:33:52;98881.88;;;-4.84;90.53
49515;BME280;35415;47.870;16.058;2022-12-19T00:36:22;98863.16;;;-5.00;90.18
49515;BME280;35415;47.870;16.058;2022-12-19T00:38:50;98861.69;;;-5.14;90.52
49515;BME280;35415;47.870;16.058;2022-12-19T00:41:20;98798.00;;;-5.47;90.51
49515;BME280;35415;47.870;16.058;2022-12-19T00:43:51;98847.41;;;-5.21;90.23
49515;BME280;35415;47.870;16.058;2022-12-19T00:46:19;98913.38;;;-4.84;90.39
49515;BME280;35415;47.870;16.058;2022-12-19T00:48:46;98829.06;;;-5.42;90.39
49515;BME280;35415;47.870;16.058;2022-12-19T00:51:15;98813.28;;;-5.52;90.67
49515;BME280;35415;47.870;16.058;2022-12-19T00:53:45;98903.00;;;-5.06;91.10
49515;BME280;35415;47.870;16.058;2022-12-19T00:56:15;98827.03;;;-5.59;90.69
49515;BME280;35415;47.870;16.058;2022-12-19T00:58:46;98814.63;;;-5.57;91.21
49515;BME280;35415;47.870;16.058;2022-12-19T01:01:16;98877.47;;;-5.04;91.03
49515;BME280;35415;47.870;16.058;2022-12-19T01:03:44;98854.91;;;-5.17;91.60
49515;BME280;35415;47.870;16.058;2022-12-19T01:06:12;98852.44;;;-5.18;91.31
49515;BME280;35415;47.870;16.058;2022-12-19T01:08:39;98875.09;;;-5.07;91.91
49515;BME280;35415;47.870;16.058;2022-12-19T01:11:08;98859.59;;;-5.20;91.59
49515;BME280;35415;47.870;16.058;2022-12-19T01:13:38;98880.19;;;-5.16;91.41
49515;BME280;35415;47.870;16.058;2022-12-19T01:16:07;98828.56;;;-5.36;91.52
49515;BME280;35415;47.870;16.058;2022-12-19T01:18:35;98802.53;;;-5.49;91.50
49515;BME280;35415;47.870;16.058;2022-12-19T01:21:04;98865.00;;;-5.12;91.84
49515;BME280;35415;47.870;16.058;2022-12-19T01:23:32;98826.09;;;-5.37;91.69
49515;BME280;35415;47.870;16.058;2022-12-19T01:26:00;98811.53;;;-5.41;91.80
49515;BME280;35415;47.870;16.058;2022-12-19T01:28:29;98855.34;;;-5.11;92.15
49515;BME280;35415;47.870;16.058;2022-12-19T01:30:56;98811.41;;;-5.40;91.63
49515;BME280;35415;47.870;16.058;2022-12-19T01:33:23;98806.25;;;-5.51;92.30
49515;BME280;35415;47.870;16.058;2022-12-19T01:35:50;98817.34;;;-5.38;91.87
49515;BME280;35415;47.870;16.058;2022-12-19T01:38:20;98814.53;;;-5.25;91.80
49515;BME280;35415;47.870;16.058;2022-12-19T01:40:49;98836.72;;;-5.08;91.61
49515;BME280;35415;47.870;16.058;2022-12-19T01:43:16;98796.84;;;-5.33;92.15
49515;BME280;35415;47.870;16.058;2022-12-19T01:45:48;98825.66;;;-5.12;91.90
49515;BME280;35415;47.870;16.058;2022-12-19T01:48:21;98834.38;;;-5.11;92.35
49515;BME280;35415;47.870;16.058;2022-12-19T01:50:55;98833.53;;;-5.12;92.19
49515;BME280;35415;47.870;16.058;2022-12-19T01:53:26;98826.06;;;-5.17;91.56
49515;BME280;35415;47.870;16.058;2022-12-19T01:55:54;98726.34;;;-5.78;91.56
49515;BME280;35415;47.870;16.058;2022-12-19T01:58:22;98829.13;;;-5.11;91.98
49515;BME280;35415;47.870;16.058;2022-12-19T02:00:51;98820.53;;;-5.13;91.95
49515;BME280;35415;47.870;16.058;2022-12-19T02:03:22;98729.31;;;-5.71;91.98
49515;BME280;35415;47.870;16.058;2022-12-19T02:05:53;98813.31;;;-5.21;92.07
49515;BME280;35415;47.870;16.058;2022-12-19T02:08:21;98766.25;;;-5.53;91.91
49515;BME280;35415;47.870;16.058;2022-12-19T02:10:52;98767.75;;;-5.51;92.06
49515;BME280;35415;47.870;16.058;2022-12-19T02:13:20;98773.44;;;-5.46;92.04
49515;BME280;35415;47.870;16.058;2022-12-19T02:15:54;98779.72;;;-5.37;92.36
49515;BME280;35415;47.870;16.058;2022-12-19T02:18:32;98805.00;;;-5.26;92.73
49515;BME280;35415;47.870;16.058;2022-12-19T02:21:24;98782.44;;;-5.38;92.45
49515;BME280;35415;47.870;16.058;2022-12-19T02:27:24;98798.25;;;-5.29;93.25
49515;BME280;35415;47.870;16.058;2022-12-19T02:30:11;98779.88;;;-5.29;93.07
49515;BME280;35415;47.870;16.058;2022-12-19T02:32:59;98789.66;;;-5.31;92.62
49515;BME280;35415;47.870;16.058;2022-12-19T02:35:33;98784.44;;;-5.31;92.96
49515;BME280;35415;47.870;16.058;2022-12-19T02:38:09;98744.22;;;-5.62;92.89
49515;BME280;35415;47.870;16.058;2022-12-19T02:40:41;98698.69;;;-5.91;92.76
49515;BME280;35415;47.870;16.058;2022-12-19T02:43:11;98706.63;;;-5.72;92.83
49515;BME280;35415;47.870;16.058;2022-12-19T02:45:40;98719.81;;;-5.62;93.17
49515;BME280;35415;47.870;16.058;2022-12-19T02:48:10;98772.28;;;-5.32;93.41
49515;BME280;35415;47.870;16.058;2022-12-19T02:50:38;98772.28;;;-5.32;93.40
49515;BME280;35415;47.870;16.058;2022-12-19T02:53:09;98713.25;;;-5.78;93.43
49515;BME280;35415;47.870;16.058;2022-12-19T02:55:45;98722.44;;;-5.62;93.31
49515;BME280;35415;47.870;16.058;2022-12-19T02:58:42;98750.13;;;-5.39;93.34
49515;BME280;35415;47.870;16.058;2022-12-19T03:01:19;98766.22;;;-5.32;93.05
49515;BME280;35415;47.870;16.058;2022-12-19T03:04:00;98675.53;;;-5.96;93.25
49515;BME280;35415;47.870;16.058;2022-12-19T03:06:33;98772.97;;;-5.30;93.34
49515;BME280;35415;47.870;16.058;2022-12-19T03:09:12;98759.31;;;-5.33;93.42
49515;BME280;35415;47.870;16.058;2022-12-19T03:11:43;98763.19;;;-5.28;93.74
49515;BME280;35415;47.870;16.058;2022-12-19T03:14:17;98760.00;;;-5.31;94.00
49515;BME280;35415;47.870;16.058;2022-12-19T03:16:45;98747.28;;;-5.36;93.60
49515;BME280;35415;47.870;16.058;2022-12-19T03:19:16;98764.56;;;-5.24;93.94
49515;BME280;35415;47.870;16.058;2022-12-19T03:21:44;98762.34;;;-5.28;93.83
49515;BME280;35415;47.870;16.058;2022-12-19T03:24:13;98763.75;;;-5.24;94.20
49515;BME280;35415;47.870;16.058;2022-12-19T03:26:44;98694.56;;;-5.63;93.75
49515;BME280;35415;47.870;16.058;2022-12-19T03:29:18;98713.41;;;-5.49;93.63
49515;BME280;35415;47.870;16.058;2022-12-19T03:31:48;98763.94;;;-5.16;93.55
49515;BME280;35415;47.870;16.058;2022-12-19T03:34:21;98711.63;;;-5.48;94.11
49515;BME280;35415;47.870;16.058;2022-12-19T03:36:54;98766.22;;;-5.23;93.94
49515;BME280;35415;47.870;16.058;2022-12-19T03:39:24;98763.66;;;-5.13;94.13
49515;BME280;35415;47.870;16.058;2022-12-19T03:41:53;98748.28;;;-5.27;93.84
49515;BME280;35415;47.870;16.058;2022-12-19T03:44:41;98767.13;;;-5.12;94.30
49515;BME280;35415;47.870;16.058;2022-12-19T03:47:13;98706.94;;;-5.45;94.42
49515;BME280;35415;47.870;16.058;2022-12-19T03:49:45;98747.63;;;-5.20;94.47
49515;BME280;35415;47.870;16.058;2022-12-19T03:52:23;98761.03;;;-5.13;94.54
49515;BME280;35415;47.870;16.058;2022-12-19T03:55:00;98751.50;;;-5.14;94.14
49515;BME280;35415;47.870;16.058;2022-12-19T03:57:35;98710.72;;;-5.37;93.98
49515;BME280;35415;47.870;16.058;2022-12-19T04:00:08;98642.50;;;-5.78;94.16
49515;BME280;35415;47.870;16.058;2022-12-19T04:02:42;98752.59;;;-5.17;94.49
49515;BME280;35415;47.870;16.058;2022-12-19T04:05:14;98749.44;;;-5.10;94.82
49515;BME280;35415;47.870;16.058;2022-12-19T04:07:45;98722.75;;;-5.25;94.60
49515;BME280;35415;47.870;16.058;2022-12-19T04:10:16;98720.81;;;-5.23;94.61
49515;BME280;35415;47.870;16.058;2022-12-19T04:12:47;98716.50;;;-5.34;94.81
49515;BME280;35415;47.870;16.058;2022-12-19T04:15:16;98723.97;;;-5.29;95.41
49515;BME280;35415;47.870;16.058;2022-12-19T04:17:46;98715.69;;;-5.34;95.36
49515;BME280;35415;47.870;16.058;2022-12-19T04:20:20;98675.66;;;-5.67;94.71
49515;BME280;35415;47.870;16.058;2022-12-19T04:23:02;98706.38;;;-5.38;95.19
49515;BME280;35415;47.870;16.058;2022-12-19T04:25:34;98682.28;;;-5.63;95.46
49515;BME280;35415;47.870;16.058;2022-12-19T04:28:06;98755.72;;;-5.02;95.14
49515;BME280;35415;47.870;16.058;2022-12-19T04:30:36;98748.53;;;-5.00;95.38
49515;BME280;35415;47.870;16.058;2022-12-19T04:33:05;98661.38;;;-5.53;95.35
49515;BME280;35415;47.870;16.058;2022-12-19T04:35:33;98676.56;;;-5.47;95.29
49515;BME280;35415;47.870;16.058;2022-12-19T04:38:01;98743.69;;;-4.95;95.62
49515;BME280;35415;47.870;16.058;2022-12-19T04:40:29;98739.97;;;-4.92;95.11
49515;BME280;35415;47.870;16.058;2022-12-19T04:42:56;98736.38;;;-5.01;95.61
49515;BME280;35415;47.870;16.058;2022-12-19T04:45:23;98658.94;;;-5.35;95.58
49515;BME280;35415;47.870;16.058;2022-12-19T04:47:50;98666.13;;;-5.28;95.37
49515;BME280;35415;47.870;16.058;2022-12-19T04:50:18;98660.25;;;-5.20;95.41
49515;BME280;35415;47.870;16.058;2022-12-19T04:52:46;98693.03;;;-4.95;95.46
49515;BME280;35415;47.870;16.058;2022-12-19T04:55:14;98699.38;;;-4.88;95.29
49515;BME280;35415;47.870;16.058;2022-12-19T04:57:41;98696.47;;;-4.95;95.68
49515;BME280;35415;47.870;16.058;2022-12-19T05:00:09;98626.22;;;-5.41;95.66
49515;BME280;35415;47.870;16.058;2022-12-19T05:02:37;98727.16;;;-4.86;95.66
49515;BME280;35415;47.870;16.058;2022-12-19T05:05:05;98677.38;;;-5.06;95.74
49515;BME280;35415;47.870;16.058;2022-12-19T05:07:32;98715.56;;;-4.83;95.66
49515;BME280;35415;47.870;16.058;2022-12-19T05:10:00;98680.44;;;-5.01;95.43
49515;BME280;35415;47.870;16.058;2022-12-19T05:12:30;98686.25;;;-4.98;95.77
49515;BME280;35415;47.870;16.058;2022-12-19T05:14:57;98624.72;;;-5.34;95.41
49515;BME280;35415;47.870;16.058;2022-12-19T05:17:24;98694.28;;;-4.80;95.61
49515;BME280;35415;47.870;16.058;2022-12-19T05:19:51;98698.44;;;-4.77;96.02
49515;BME280;35415;47.870;16.058;2022-12-19T05:22:19;98715.28;;;-4.70;95.69
49515;BME280;35415;47.870;16.058;2022-12-19T05:24:46;98711.97;;;-4.72;95.97
49515;BME280;35415;47.870;16.058;2022-12-19T05:27:15;98628.72;;;-5.30;95.62
49515;BME280;35415;47.870;16.058;2022-12-19T05:29:43;98732.84;;;-4.71;95.59
49515;BME280;35415;47.870;16.058;2022-12-19T05:32:10;98629.97;;;-5.24;95.70
49515;BME280;35415;47.870;16.058;2022-12-19T05:34:38;98726.38;;;-4.67;95.58
49515;BME280;35415;47.870;16.058;2022-12-19T05:37:05;98655.72;;;-4.99;95.62
49515;BME280;35415;47.870;16.058;2022-12-19T05:39:33;98671.88;;;-4.94;95.68
49515;BME280;35415;47.870;16.058;2022-12-19T05:42:00;98687.94;;;-4.77;95.75
49515;BME280;35415;47.870;16.058;2022-12-19T05:44:29;98635.53;;;-5.18;95.78
49515;BME280;35415;47.870;16.058;2022-12-19T05:46:57;98658.63;;;-4.92;95.77
49515;BME280;35415;47.870;16.058;2022-12-19T05:49:24;98705.94;;;-4.63;95.90
49515;BME280;35415;47.870;16.058;2022-12-19T05:51:51;98721.81;;;-4.55;95.72
49515;BME280;35415;47.870;16.058;2022-12-19T05:54:18;98663.19;;;-4.94;95.77
49515;BME280;35415;47.870;16.058;2022-12-19T05:56:45;98617.56;;;-5.22;95.98
49515;BME280;35415;47.870;16.058;2022-12-19T05:59:13;98675.66;;;-4.87;96.08
49515;BME280;35415;47.870;16.058;2022-12-19T06:01:42;98726.81;;;-4.52;95.96
49515;BME280;35415;47.870;16.058;2022-12-19T06:04:09;98730.28;;;-4.51;96.01
49515;BME280;35415;47.870;16.058;2022-12-19T06:06:36;98735.53;;;-4.51;96.36
49515;BME280;35415;47.870;16.058;2022-12-19T06:09:04;98731.09;;;-4.51;95.98
49515;BME280;35415;47.870;16.058;2022-12-19T06:11:31;98734.56;;;-4.50;96.11
49515;BME280;35415;47.870;16.058;2022-12-19T06:13:58;98731.09;;;-4.51;95.90
49515;BME280;35415;47.870;16.058;2022-12-19T06:16:25;98723.63;;;-4.56;96.14
49515;BME280;35415;47.870;16.058;2022-12-19T06:18:54;98734.41;;;-4.49;95.79
49515;BME280;35415;47.870;16.058;2022-12-19T06:21:22;98689.59;;;-4.76;95.79
49515;BME280;35415;47.870;16.058;2022-12-19T06:23:49;98738.84;;;-4.49;95.96
49515;BME280;35415;47.870;16.058;2022-12-19T06:26:18;98735.94;;;-4.46;95.63
49515;BME280;35415;47.870;16.058;2022-12-19T06:28:45;98739.38;;;-4.46;95.78
49515;BME280;35415;47.870;16.058;2022-12-19T06:31:13;98737.88;;;-4.48;95.51
49515;BME280;35415;47.870;16.058;2022-12-19T06:33:40;98732.75;;;-4.50;95.70
49515;BME280;35415;47.870;16.058;2022-12-19T06:36:11;98725.84;;;-4.51;95.76
49515;BME280;35415;47.870;16.058;2022-12-19T06:38:39;98725.16;;;-4.53;95.61
49515;BME280;35415;47.870;16.058;2022-12-19T06:41:08;98738.41;;;-4.55;95.68
49515;BME280;35415;47.870;16.058;2022-12-19T06:43:56;98725.81;;;-4.61;95.83
49515;BME280;35415;47.870;16.058;2022-12-19T06:46:23;98741.16;;;-4.56;95.79
49515;BME280;35415;47.870;16.058;2022-12-19T06:48:51;98736.88;;;-4.57;95.35
49515;BME280;35415;47.870;16.058;2022-12-19T06:51:19;98733.56;;;-4.59;95.75
49515;BME280;35415;47.870;16.058;2022-12-19T06:53:48;98746.00;;;-4.61;95.74
49515;BME280;35415;47.870;16.058;2022-12-19T06:56:16;98751.25;;;-4.61;95.65
49515;BME280;35415;47.870;16.058;2022-12-19T06:58:43;98685.41;;;-4.98;95.77
49515;BME280;35415;47.870;16.058;2022-12-19T07:01:16;98745.72;;;-4.68;95.73
49515;BME280;35415;47.870;16.058;2022-12-19T07:03:45;98747.53;;;-4.59;95.99
49515;BME280;35415;47.870;16.058;2022-12-19T07:06:13;98748.50;;;-4.60;95.62
49515;BME280;35415;47.870;16.058;2022-12-19T07:08:42;98753.75;;;-4.60;96.02
49515;BME280;35415;47.870;16.058;2022-12-19T07:11:09;98764.09;;;-4.58;95.69
49515;BME280;35415;47.870;16.058;2022-12-19T07:13:35;98755.53;;;-4.60;96.15
49515;BME280;35415;47.870;16.058;2022-12-19T07:16:03;98767.97;;;-4.62;96.11
49515;BME280;35415;47.870;16.058;2022-12-19T07:18:37;98770.72;;;-4.64;95.83
49515;BME280;35415;47.870;16.058;2022-12-19T07:21:06;98770.03;;;-4.66;95.83
49515;BME280;35415;47.870;16.058;2022-12-19T07:23:35;98780.13;;;-4.61;95.93
49515;BME280;35415;47.870;16.058;2022-12-19T07:26:04;98727.91;;;-5.04;95.91
49515;BME280;35415;47.870;16.058;2022-12-19T07:28:32;98774.19;;;-4.63;96.11
49515;BME280;35415;47.870;16.058;2022-12-19T07:31:00;98763.69;;;-4.63;96.45
49515;BME280;35415;47.870;16.058;2022-12-19T07:33:27;98768.94;;;-4.63;96.41
49515;BME280;35415;47.870;16.058;2022-12-19T07:35:54;98765.34;;;-4.62;96.31
49515;BME280;35415;47.870;16.058;2022-12-19T07:38:21;98775.72;;;-4.61;96.42
49515;BME280;35415;47.870;16.058;2022-12-19T07:40:48;98785.25;;;-4.60;96.14
49515;BME280;35415;47.870;16.058;2022-12-19T07:43:16;98794.50;;;-4.56;95.93
49515;BME280;35415;47.870;16.058;2022-12-19T07:45:43;98783.44;;;-4.59;96.38
49515;BME280;35415;47.870;16.058;2022-12-19T07:48:10;98789.94;;;-4.54;96.15
49515;BME280;35415;47.870;16.058;2022-12-19T07:50:37;98792.19;;;-4.49;96.52
49515;BME280;35415;47.870;16.058;2022-12-19T07:53:04;98751.50;;;-4.74;96.54
49515;BME280;35415;47.870;16.058;2022-12-19T07:55:31;98761.19;;;-4.65;96.30
49515;BME280;35415;47.870;16.058;2022-12-19T07:57:59;98809.06;;;-4.42;96.31
49515;BME280;35415;47.870;16.058;2022-12-19T08:00:27;98806.97;;;-4.38;96.54
49515;BME280;35415;47.870;16.058;2022-12-19T08:02:55;98806.97;;;-4.38;96.11
49515;BME280;35415;47.870;16.058;2022-12-19T08:05:22;98824.41;;;-4.37;96.59
49515;BME280;35415;47.870;16.058;2022-12-19T08:07:49;98818.31;;;-4.38;96.42
49515;BME280;35415;47.870;16.058;2022-12-19T08:10:16;98813.78;;;-4.36;96.35
49515;BME280;35415;47.870;16.058;2022-12-19T08:12:44;98804.63;;;-4.41;96.49
49515;BME280;35415;47.870;16.058;2022-12-19T08:15:11;98807.56;;;-4.35;97.00
49515;BME280;35415;47.870;16.058;2022-12-19T08:17:39;98822.50;;;-4.26;96.90
49515;BME280;35415;47.870;16.058;2022-12-19T08:20:08;98830.25;;;-4.24;96.74
49515;BME280;35415;47.870;16.058;2022-12-19T08:22:36;98832.34;;;-4.18;96.98
49515;BME280;35415;47.870;16.058;2022-12-19T08:25:05;98836.22;;;-4.12;97.06
49515;BME280;35415;47.870;16.058;2022-12-19T08:27:32;98836.78;;;-4.09;96.84
49515;BME280;35415;47.870;16.058;2022-12-19T08:30:00;98821.41;;;-4.13;96.64
49515;BME280;35415;47.870;16.058;2022-12-19T08:32:29;98837.91;;;-4.02;96.87
49515;BME280;35415;47.870;16.058;2022-12-19T08:34:58;98829.75;;;-3.99;96.59
49515;BME280;35415;47.870;16.058;2022-12-19T08:37:25;98834.56;;;-3.94;96.77
49515;BME280;35415;47.870;16.058;2022-12-19T08:39:52;98829.88;;;-3.90;96.31
49515;BME280;35415;47.870;16.058;2022-12-19T08:42:19;98816.88;;;-3.92;96.48
49515;BME280;35415;47.870;16.058;2022-12-19T08:44:46;98829.47;;;-3.86;96.46
49515;BME280;35415;47.870;16.058;2022-12-19T08:47:13;98836.25;;;-3.83;96.29
49515;BME280;35415;47.870;16.058;2022-12-19T08:49:40;98832.38;;;-3.79;96.32
49515;BME280;35415;47.870;16.058;2022-12-19T08:52:08;98834.72;;;-3.76;96.47
49515;BME280;35415;47.870;16.058;2022-12-19T08:54:35;98801.22;;;-4.03;96.25
49515;BME280;35415;47.870;16.058;2022-12-19T08:57:02;98787.13;;;-4.02;96.14
49515;BME280;35415;47.870;16.058;2022-12-19T08:59:29;98840.81;;;-3.66;96.13
49515;BME280;35415;47.870;16.058;2022-12-19T09:02:03;98815.91;;;-3.81;96.12
49515;BME280;35415;47.870;16.058;2022-12-19T09:04:43;98845.50;;;-3.60;96.14
49515;BME280;35415;47.870;16.058;2022-12-19T09:07:15;98839.97;;;-3.57;95.96
49515;BME280;35415;47.870;16.058;2022-12-19T09:09:48;98836.94;;;-3.52;96.09
49515;BME280;35415;47.870;16.058;2022-12-19T09:12:15;98805.50;;;-3.64;96.42
49515;BME280;35415;47.870;16.058;2022-12-19T09:14:42;98818.38;;;-3.51;96.34
49515;BME280;35415;47.870;16.058;2022-12-19T09:17:09;98832.19;;;-3.39;96.42
49515;BME280;35415;47.870;16.058;2022-12-19T09:19:36;98829.16;;;-3.35;96.39
49515;BME280;35415;47.870;16.058;2022-12-19T09:22:03;98830.38;;;-3.29;96.12
49515;BME280;35415;47.870;16.058;2022-12-19T09:24:32;98828.97;;;-3.23;96.47
49515;BME280;35415;47.870;16.058;2022-12-19T09:26:59;98825.53;;;-3.24;96.70
49515;BME280;35415;47.870;16.058;2022-12-19T09:29:26;98834.66;;;-3.18;96.77
49515;BME280;35415;47.870;16.058;2022-12-19T09:31:53;98829.94;;;-3.24;97.45
49515;BME280;35415;47.870;16.058;2022-12-19T09:34:20;98870.34;;;-2.96;97.45
49515;BME280;35415;47.870;16.058;2022-12-19T09:36:47;98859.78;;;-2.87;97.73
49515;BME280;35415;47.870;16.058;2022-12-19T09:39:15;98849.66;;;-2.82;97.34
49515;BME280;35415;47.870;16.058;2022-12-19T09:42:05;98834.94;;;-2.75;97.41
49515;BME280;35415;47.870;16.058;2022-12-19T09:44:53;98815.44;;;-2.82;97.65
49515;BME280;35415;47.870;16.058;2022-12-19T09:47:27;98848.75;;;-2.63;98.09
49515;BME280;35415;47.870;16.058;2022-12-19T09:49:56;98857.72;;;-2.56;98.32
49515;BME280;35415;47.870;16.058;2022-12-19T09:52:27;98866.03;;;-2.51;98.38
49515;BME280;35415;47.870;16.058;2022-12-19T09:55:01;98869.75;;;-2.44;98.56
49515;BME280;35415;47.870;16.058;2022-12-19T09:57:38;98865.16;;;-2.42;98.14
49515;BME280;35415;47.870;16.058;2022-12-19T10:00:10;98870.38;;;-2.32;97.88
49515;BME280;35415;47.870;16.058;2022-12-19T10:02:43;98857.59;;;-2.27;97.62
49515;BME280;35415;47.870;16.058;2022-12-19T10:05:16;98862.41;;;-2.22;97.42
49515;BME280;35415;47.870;16.058;2022-12-19T10:07:46;98832.25;;;-2.37;97.26
49515;BME280;35415;47.870;16.058;2022-12-19T10:10:14;98844.13;;;-2.24;97.42
49515;BME280;35415;47.870;16.058;2022-12-19T10:12:56;98843.28;;;-2.24;97.26
49515;BME280;35415;47.870;16.058;2022-12-19T10:15:45;98871.84;;;-2.02;97.41
49515;BME280;35415;47.870;16.058;2022-12-19T10:18:40;98878.38;;;-1.96;98.03
49515;BME280;35415;47.870;16.058;2022-12-19T10:21:11;98869.03;;;-1.91;97.90
49515;BME280;35415;47.870;16.058;2022-12-19T10:23:54;98868.44;;;-1.85;97.63
49515;BME280;35415;47.870;16.058;2022-12-19T10:26:28;98867.16;;;-1.80;97.69
49515;BME280;35415;47.870;16.058;2022-12-19T10:29:17;98859.31;;;-1.72;97.71
49515;BME280;35415;47.870;16.058;2022-12-19T10:31:52;98847.63;;;-1.70;97.96
49515;BME280;35415;47.870;16.058;2022-12-19T10:34:22;98854.50;;;-1.59;97.93
49515;BME280;35415;47.870;16.058;2022-12-19T10:36:53;98845.97;;;-1.53;97.65
49515;BME280;35415;47.870;16.058;2022-12-19T10:39:27;98813.88;;;-1.66;97.56
49515;BME280;35415;47.870;16.058;2022-12-19T10:42:01;98793.88;;;-1.69;97.30
49515;BME280;35415;47.870;16.058;2022-12-19T10:44:33;98842.47;;;-1.36;97.44
49515;BME280;35415;47.870;16.058;2022-12-19T10:47:06;98844.53;;;-1.30;97.19
49515;BME280;35415;47.870;16.058;2022-12-19T10:49:42;98854.75;;;-1.27;96.90
49515;BME280;35415;47.870;16.058;2022-12-19T10:52:10;98860.41;;;-1.22;97.11
49515;BME280;35415;47.870;16.058;2022-12-19T10:54:39;98868.72;;;-1.16;96.85
49515;BME280;35415;47.870;16.058;2022-12-19T10:57:22;98856.34;;;-1.16;96.66
49515;BME280;35415;47.870;16.058;2022-12-19T10:59:55;98860.84;;;-1.08;96.37
49515;BME280;35415;47.870;16.058;2022-12-19T11:02:32;98858.72;;;-1.05;96.06
49515;BME280;35415;47.870;16.058;2022-12-19T11:05:00;98856.59;;;-1.01;96.22
49515;BME280;35415;47.870;16.058;2022-12-19T11:07:28;98862.41;;;-0.98;96.14
49515;BME280;35415;47.870;16.058;2022-12-19T11:09:55;98852.34;;;-0.94;95.87
49515;BME280;35415;47.870;16.058;2022-12-19T11:12:24;98820.75;;;-1.04;95.56
49515;BME280;35415;47.870;16.058;2022-12-19T11:15:12;98849.91;;;-0.87;95.80
49515;BME280;35415;47.870;16.058;2022-12-19T11:17:40;98841.53;;;-0.83;95.19
49515;BME280;35415;47.870;16.058;2022-12-19T11:20:18;98809.91;;;-1.01;95.39
49515;BME280;35415;47.870;16.058;2022-12-19T11:22:51;98820.69;;;-0.86;94.87
49515;BME280;35415;47.870;16.058;2022-12-19T11:25:20;98837.94;;;-0.74;94.91
49515;BME280;35415;47.870;16.058;2022-12-19T11:27:48;98820.28;;;-0.73;94.69
49515;BME280;35415;47.870;16.058;2022-12-19T11:30:20;98833.81;;;-0.68;94.89
49515;BME280;35415;47.870;16.058;2022-12-19T11:33:07;98800.09;;;-0.82;94.73
49515;BME280;35415;47.870;16.058;2022-12-19T11:35:45;98826.13;;;-0.62;94.45
49515;BME280;35415;47.870;16.058;2022-12-19T11:38:14;98754.78;;;-0.96;94.35
49515;BME280;35415;47.870;16.058;2022-12-19T11:40:45;98809.78;;;-0.57;94.40
49515;BME280;35415;47.870;16.058;2022-12-19T11:43:22;98806.81;;;-0.54;94.34
49515;BME280;35415;47.870;16.058;2022-12-19T11:45:59;98807.34;;;-0.50;94.38
49515;BME280;35415;47.870;16.058;2022-12-19T11:48:35;98775.75;;;-0.60;94.17
49515;BME280;35415;47.870;16.058;2022-12-19T11:51:08;98785.88;;;-0.47;94.11
49515;BME280;35415;47.870;16.058;2022-12-19T11:53:47;98785.72;;;-0.46;93.97
49515;BME280;35415;47.870;16.058;2022-12-19T11:56:19;98786.03;;;-0.41;94.16
49515;BME280;35415;47.870;16.058;2022-12-19T11:58:50;98752.63;;;-0.58;94.09
49515;BME280;35415;47.870;16.058;2022-12-19T12:01:32;98781.91;;;-0.35;94.32
49515;BME280;35415;47.870;16.058;2022-12-19T12:04:16;98775.16;;;-0.38;94.12
49515;BME280;35415;47.870;16.058;2022-12-19T12:06:51;98741.94;;;-0.48;94.29
49515;BME280;35415;47.870;16.058;2022-12-19T12:09:28;98764.28;;;-0.26;93.89
49515;BME280;35415;47.870;16.058;2022-12-19T12:12:01;98759.66;;;-0.24;93.88
49515;BME280;35415;47.870;16.058;2022-12-19T12:14:37;98752.88;;;-0.27;93.79
49515;BME280;35415;47.870;16.058;2022-12-19T12:17:31;98759.81;;;-0.18;93.76
49515;BME280;35415;47.870;16.058;2022-12-19T12:20:16;98759.34;;;-0.13;93.75
49515;BME280;35415;47.870;16.058;2022-12-19T12:25:41;98751.75;;;-0.08;93.40
49515;BME280;35415;47.870;16.058;2022-12-19T12:28:45;98731.41;;;-0.08;93.63
49515;BME280;35415;47.870;16.058;2022-12-19T12:31:26;98742.97;;;-0.01;93.56
49515;BME280;35415;47.870;16.058;2022-12-19T12:34:08;98731.28;;;0.02;93.35
49515;BME280;35415;47.870;16.058;2022-12-19T12:36:47;98740.53;;;0.06;93.51
49515;BME280;35415;47.870;16.058;2022-12-19T12:39:19;98741.19;;;0.08;93.58
49515;BME280;35415;47.870;16.058;2022-12-19T12:41:55;98680.34;;;-0.16;93.30
49515;BME280;35415;47.870;16.058;2022-12-19T12:44:32;98712.41;;;0.13;93.43
49515;BME280;35415;47.870;16.058;2022-12-19T12:47:07;98699.34;;;0.12;93.56
49515;BME280;35415;47.870;16.058;2022-12-19T12:49:42;98711.75;;;0.19;93.49
49515;BME280;35415;47.870;16.058;2022-12-19T12:52:14;98703.47;;;0.22;93.33
49515;BME280;35415;47.870;16.058;2022-12-19T12:54:44;98701.66;;;0.23;93.17
49515;BME280;35415;47.870;16.058;2022-12-19T12:57:24;98683.47;;;0.20;93.04
49515;BME280;35415;47.870;16.058;2022-12-19T13:00:23;98694.69;;;0.30;93.16
49515;BME280;35415;47.870;16.058;2022-12-19T13:02:54;98682.63;;;0.27;92.73
49515;BME280;35415;47.870;16.058;2022-12-19T13:05:52;98670.25;;;0.20;92.72
49515;BME280;35415;47.870;16.058;2022-12-19T13:08:35;98684.13;;;0.38;92.82
49515;BME280;35415;47.870;16.058;2022-12-19T13:11:05;98688.41;;;0.39;92.45
49515;BME280;35415;47.870;16.058;2022-12-19T13:13:52;98695.03;;;0.43;92.51
49515;BME280;35415;47.870;16.058;2022-12-19T13:16:49;98672.69;;;0.38;92.38
49515;BME280;35415;47.870;16.058;2022-12-19T13:19:19;98679.63;;;0.47;92.35